createdAt,value
2022-07-26T00:01:25.883Z,52.02
2022-07-26T00:06:35.423Z,52.44
2022-07-26T00:11:38.733Z,52.79
2022-07-26T00:16:42.269Z,53.13
2022-07-26T00:21:45.661Z,53.19
2022-07-26T00:26:48.972Z,53.66
2022-07-26T00:31:52.369Z,54.02
2022-07-26T00:36:55.798Z,54.35
2022-07-26T00:41:59.109Z,54.36
2022-07-26T00:47:02.523Z,54.75
2022-07-26T00:52:10.542Z,55.08
2022-07-26T00:57:15.395Z,55.38
2022-07-26T01:02:19.279Z,55.44
2022-07-26T01:07:23.551Z,55.47
2022-07-26T01:12:26.860Z,55.92
2022-07-26T01:17:30.273Z,56.09
2022-07-26T01:22:33.685Z,56.30
2022-07-26T01:27:39.801Z,56.45
2022-07-26T01:32:43.177Z,56.70
2022-07-26T01:37:47.102Z,56.83
2022-07-26T01:42:50.514Z,56.99
2022-07-26T01:47:54.131Z,57.32
2022-07-26T01:52:57.443Z,57.55
2022-07-26T01:58:00.856Z,57.56
2022-07-26T02:03:04.328Z,57.86
2022-07-26T02:08:07.989Z,57.93
2022-07-26T02:13:16.113Z,58.15
2022-07-26T02:18:19.631Z,58.16
2022-07-26T02:23:24.891Z,58.46
2022-07-26T02:28:28.706Z,58.56
2022-07-26T02:33:32.017Z,58.68
2022-07-26T02:38:35.431Z,58.89
2022-07-26T02:43:38.845Z,58.88
2022-07-26T02:48:45.234Z,59.07
2022-07-26T02:53:48.642Z,59.17
2022-07-26T02:58:52.158Z,59.27
2022-07-26T03:03:55.878Z,59.26
2022-07-26T03:08:59.910Z,59.25
2022-07-26T03:14:03.215Z,59.35
2022-07-26T03:19:06.939Z,59.73
2022-07-26T03:24:10.561Z,59.60
2022-07-26T03:29:14.377Z,59.60
2022-07-26T03:34:18.100Z,59.64
2022-07-26T03:39:21.511Z,59.80
2022-07-26T03:44:26.256Z,59.97
2022-07-26T03:49:29.719Z,60.13
2022-07-26T03:54:33.184Z,60.23
2022-07-26T03:59:36.803Z,60.31
2022-07-26T04:04:40.009Z,60.31
2022-07-26T04:09:43.428Z,60.36
2022-07-26T04:14:46.738Z,60.09
2022-07-26T04:19:50.250Z,60.02
2022-07-26T04:24:53.670Z,59.98
2022-07-26T04:29:57.282Z,59.85
2022-07-26T04:35:00.543Z,59.63
2022-07-26T04:40:04.335Z,59.21
2022-07-26T04:45:08.982Z,59.04
2022-07-26T04:50:13.597Z,58.87
2022-07-26T04:55:19.425Z,58.68
2022-07-26T05:00:26.818Z,58.49
2022-07-26T05:05:32.104Z,58.23
2022-07-26T05:10:37.695Z,58.02
2022-07-26T05:15:42.925Z,57.58
2022-07-26T05:20:48.207Z,57.24
2022-07-26T05:25:51.519Z,56.80
2022-07-26T05:30:55.067Z,56.63
2022-07-26T05:35:58.652Z,56.02
2022-07-26T05:41:02.065Z,55.31
2022-07-26T05:46:09.455Z,54.72
2022-07-26T05:51:13.300Z,54.32
2022-07-26T05:56:16.604Z,53.66
2022-07-26T06:01:20.022Z,52.91
2022-07-26T06:06:23.432Z,52.52
2022-07-26T06:11:26.853Z,51.77
2022-07-26T06:16:30.258Z,51.37
2022-07-26T06:21:33.671Z,50.47
2022-07-26T06:26:37.192Z,49.78
2022-07-26T06:31:41.051Z,49.91
2022-07-26T06:36:44.833Z,49.19
2022-07-26T06:41:48.656Z,48.73
2022-07-26T06:46:52.069Z,49.26
2022-07-26T06:51:58.248Z,49.50
2022-07-26T06:57:01.511Z,49.59
2022-07-26T07:02:06.153Z,49.63
2022-07-26T07:07:09.574Z,50.09
2022-07-26T07:12:13.089Z,50.37
2022-07-26T07:17:20.531Z,50.81
2022-07-26T07:22:24.255Z,50.68
2022-07-26T07:27:28.489Z,50.82
2022-07-26T07:32:32.977Z,50.96
2022-07-26T07:37:53.809Z,51.17
2022-07-26T07:42:58.802Z,51.45
2022-07-26T07:48:02.279Z,51.39
2022-07-26T07:53:05.730Z,52.06
2022-07-26T07:58:09.349Z,52.48
2022-07-26T08:03:13.170Z,53.75
2022-07-26T08:08:22.028Z,55.18
2022-07-26T08:13:26.193Z,56.59
2022-07-26T08:18:30.475Z,57.08
2022-07-26T08:23:34.195Z,57.45
2022-07-26T08:28:47.245Z,57.82
2022-07-26T08:33:51.670Z,58.26
2022-07-26T08:38:56.212Z,58.92
2022-07-26T08:44:08.476Z,59.60
2022-07-26T08:49:17.433Z,60.06
2022-07-26T08:54:23.755Z,60.37
2022-07-26T08:59:27.225Z,60.76
2022-07-26T09:04:35.391Z,60.96
2022-07-26T09:09:57.135Z,61.12
2022-07-26T09:15:02.471Z,61.24
2022-07-26T09:20:14.886Z,61.10
2022-07-26T09:25:22.945Z,60.74
2022-07-26T09:30:28.048Z,60.95
2022-07-26T09:35:52.304Z,61.90
2022-07-26T09:40:58.656Z,62.39
2022-07-26T09:46:07.602Z,62.74
2022-07-26T09:51:11.449Z,63.11
2022-07-26T09:56:15.062Z,63.93
2022-07-26T10:01:18.402Z,64.76
2022-07-26T10:06:26.092Z,66.23
2022-07-26T10:11:43.016Z,67.27
2022-07-26T10:16:46.330Z,67.70
2022-07-26T10:21:51.074Z,68.63
2022-07-26T10:26:54.383Z,69.45
2022-07-26T10:32:00.674Z,70.43
2022-07-26T10:37:07.315Z,71.12
2022-07-26T10:42:11.743Z,71.90
2022-07-26T10:47:18.844Z,73.35
2022-07-26T10:52:28.158Z,73.90
2022-07-26T10:57:42.964Z,74.51
2022-07-26T11:02:54.887Z,74.97
2022-07-26T11:08:05.304Z,75.27
2022-07-26T11:13:16.304Z,75.13
2022-07-26T11:18:25.361Z,74.88
2022-07-26T11:23:41.058Z,74.54
2022-07-26T11:28:59.467Z,74.01
2022-07-26T11:34:04.875Z,73.30
2022-07-26T11:39:14.432Z,72.66
2022-07-26T11:44:20.816Z,72.18
2022-07-26T11:54:55.091Z,71.22
2022-07-26T12:00:00.048Z,70.43
2022-07-26T12:05:22.208Z,70.14
2022-07-26T12:10:26.320Z,70.07
2022-07-26T12:15:52.404Z,69.62
2022-07-26T12:21:04.648Z,69.22
2022-07-26T12:26:28.887Z,69.24
2022-07-26T12:31:34.429Z,68.90
2022-07-26T12:36:38.680Z,68.78
2022-07-26T12:41:45.574Z,68.94
2022-07-26T12:46:49.794Z,68.91
2022-07-26T12:51:53.223Z,68.78
2022-07-26T12:56:56.326Z,68.39
2022-07-26T13:02:00.136Z,68.19
2022-07-26T13:07:05.855Z,68.02
2022-07-26T13:12:10.522Z,67.71
2022-07-26T13:17:13.964Z,67.30
2022-07-26T13:22:17.385Z,66.93
2022-07-26T13:27:20.801Z,66.54
2022-07-26T13:32:24.111Z,66.38
2022-07-26T13:37:27.319Z,66.31
2022-07-26T13:42:30.836Z,66.21
2022-07-26T13:47:34.254Z,65.99
2022-07-26T13:52:37.668Z,65.51
2022-07-26T13:57:49.569Z,65.79
2022-07-26T14:03:01.026Z,65.57
2022-07-26T14:08:04.754Z,65.19
2022-07-26T14:13:09.131Z,64.86
2022-07-26T14:18:12.442Z,64.54
2022-07-26T14:23:15.755Z,63.73
2022-07-26T14:28:19.167Z,63.54
2022-07-26T14:33:22.482Z,63.57
2022-07-26T14:38:29.954Z,63.50
2022-07-26T14:43:33.707Z,63.33
2022-07-26T14:48:53.505Z,63.18
2022-07-26T14:53:57.636Z,62.68
2022-07-26T14:59:00.919Z,62.12
2022-07-26T15:04:05.376Z,61.90
2022-07-26T15:09:08.698Z,61.52
2022-07-26T15:14:12.313Z,61.23
2022-07-26T15:19:16.135Z,61.02
2022-07-26T15:24:19.447Z,60.82
2022-07-26T15:29:26.444Z,60.69
2022-07-26T15:34:29.756Z,60.82
2022-07-26T15:39:33.168Z,59.97
2022-07-26T15:44:41.483Z,60.10
2022-07-26T15:49:44.910Z,59.66
2022-07-26T15:54:48.322Z,59.54
2022-07-26T15:59:51.686Z,58.86
2022-07-26T16:04:55.046Z,58.14
2022-07-26T16:09:58.561Z,57.67
2022-07-26T16:15:01.874Z,57.69
2022-07-26T16:20:05.968Z,57.46
2022-07-26T16:25:10.395Z,57.30
2022-07-26T16:30:15.241Z,57.17
2022-07-26T16:35:18.508Z,57.19
2022-07-26T16:40:22.087Z,57.06
2022-07-26T16:45:25.527Z,57.05
2022-07-26T16:50:28.941Z,56.87
2022-07-26T16:55:32.148Z,56.08
2022-07-26T17:00:35.523Z,55.31
2022-07-26T17:05:38.976Z,55.13
2022-07-26T17:10:42.592Z,54.90
2022-07-26T17:15:46.179Z,54.97
2022-07-26T17:20:49.729Z,55.21
2022-07-26T17:25:53.242Z,55.39
2022-07-26T17:30:56.655Z,55.61
2022-07-26T17:36:03.291Z,55.94
2022-07-26T17:41:07.783Z,56.46
2022-07-26T17:46:11.158Z,56.29
2022-07-26T17:51:16.249Z,56.44
2022-07-26T17:56:19.456Z,56.58
2022-07-26T18:01:22.904Z,56.85
2022-07-26T18:06:26.394Z,56.63
2022-07-26T18:11:29.902Z,56.65
2022-07-26T18:16:34.039Z,56.85
2022-07-26T18:21:37.443Z,57.28
2022-07-26T18:26:42.294Z,57.51
2022-07-26T18:31:47.295Z,57.96
2022-07-26T18:36:50.551Z,58.36
2022-07-26T18:41:55.093Z,58.80
2022-07-26T18:46:58.425Z,59.23
2022-07-26T18:52:08.387Z,59.70
2022-07-26T18:57:12.501Z,60.05
2022-07-26T19:02:16.117Z,60.80
2022-07-26T19:07:19.536Z,61.38
2022-07-26T19:12:22.841Z,61.81
2022-07-26T19:17:27.744Z,62.37
2022-07-26T19:22:33.416Z,62.81
2022-07-26T19:27:37.895Z,62.96
2022-07-26T19:32:42.433Z,63.94
2022-07-26T19:37:46.564Z,64.45
2022-07-26T19:42:50.493Z,64.82
2022-07-26T19:47:53.800Z,64.95
2022-07-26T19:52:57.110Z,65.90
2022-07-26T19:58:00.627Z,66.54
2022-07-26T20:03:04.804Z,67.60
2022-07-26T20:08:08.173Z,69.31
2022-07-26T20:13:11.583Z,72.06
2022-07-26T20:18:15.206Z,73.10
2022-07-26T20:23:18.716Z,74.13
2022-07-26T20:28:22.233Z,74.85
2022-07-26T20:33:27.077Z,76.22
2022-07-26T20:38:30.544Z,77.53
2022-07-26T20:43:34.415Z,78.60
2022-07-26T20:48:37.953Z,79.76
2022-07-26T20:53:42.064Z,81.10
2022-07-26T20:58:46.072Z,81.22
2022-07-26T21:03:49.916Z,80.86
2022-07-26T21:08:53.531Z,81.73
2022-07-26T21:13:57.159Z,82.04
2022-07-26T21:19:01.855Z,83.23
2022-07-26T21:24:06.680Z,82.47
2022-07-26T21:29:10.247Z,82.06
2022-07-26T21:34:13.948Z,82.53
2022-07-26T21:39:17.595Z,82.56
2022-07-26T21:44:20.906Z,82.56
2022-07-26T21:49:24.319Z,82.20
2022-07-26T21:54:27.837Z,82.06
2022-07-26T21:59:31.144Z,82.78
2022-07-26T22:04:34.504Z,82.63
2022-07-26T22:09:37.869Z,82.16
2022-07-26T22:14:41.180Z,82.20
2022-07-26T22:19:44.595Z,81.80
2022-07-26T22:24:47.902Z,80.38
2022-07-26T22:29:51.625Z,79.08
2022-07-26T22:34:55.040Z,78.12
2022-07-26T22:39:58.348Z,77.07
2022-07-26T22:45:01.761Z,76.38
2022-07-26T22:50:06.709Z,75.80
2022-07-26T22:55:12.600Z,75.75
2022-07-26T23:00:18.384Z,75.58
2022-07-26T23:05:21.766Z,75.45
2022-07-26T23:10:31.114Z,75.45
2022-07-26T23:15:34.528Z,75.46
2022-07-26T23:20:37.840Z,75.41
2022-07-26T23:25:41.152Z,75.03
2022-07-26T23:30:44.464Z,75.03
2022-07-26T23:35:47.985Z,75.05
2022-07-26T23:40:51.285Z,75.09
2022-07-26T23:45:54.597Z,75.14
2022-07-26T23:50:57.930Z,74.87
2022-07-26T23:56:01.221Z,74.86
